Hubbell, Nebraska
Current Conditions -  °F | °C
As of 5:15 PM on Thursday 27 Nov 2014 (Local Time) from KHJH Reporting Station
Clear Clear  
Wind Chill: 28°   Ceiling: Unl
Heat Index: 34°   Visibility: 10mi
Dew Point: 13°   Wind: 6mph
Humidity: 43%   Direction: 150°SSE
Pressure: 30.23"   Gusts: NA
Location:  40.01°N, 97.5°W
Report Text: KHJH 272315Z AUTO 15005KT 10SM CLR 01/M10 A3023 RMK AO2 T00091105
Loading
Personal Weather Stations






























Interactive Weather Map New forecast layout! Learn more

10-Day Weather Forecast

Advertisements
Track Severe Weather on mobile